Time;durP1;ratioP1;P1;durP2;ratioP2;P2;SDS_P1;SDS_P2;PMS_P1;PMS_P2;Temp;Humidity;BMP_temperature;BMP_pressure;BME280_temperature;BME280_humidity;BME280_pressure;Samples;Min_cycle;Max_cycle;Signal;HPM_P1;HPM_P2
2023/05/15 00:01:42;;;;;;;7.28;4.43;;;;;;;11.23;85.71;93896.50;4984791;28;20027;-84
2023/05/15 00:04:08;;;;;;;9.48;4.53;;;;;;;11.17;85.79;93899.63;4984518;28;20018;-84
2023/05/15 00:06:34;;;;;;;7.43;4.63;;;;;;;11.15;85.72;93893.84;4984658;28;20030;-84
2023/05/15 00:09:00;;;;;;;10.20;4.95;;;;;;;11.11;86.08;93875.00;4985044;28;20383;-85
2023/05/15 00:11:26;;;;;;;7.43;4.03;;;;;;;11.11;85.48;93874.22;4984924;28;20026;-85
2023/05/15 00:13:52;;;;;;;11.73;4.30;;;;;;;11.08;85.83;93888.22;4967451;28;20217;-85
2023/05/15 00:16:18;;;;;;;10.30;3.50;;;;;;;11.07;85.94;93890.06;4984714;28;20022;-85
2023/05/15 00:18:43;;;;;;;5.75;3.28;;;;;;;11.06;85.80;93925.84;4984279;28;20324;-83
2023/05/15 00:21:09;;;;;;;6.90;3.13;;;;;;;11.04;85.32;93936.06;4984283;28;20021;-83
2023/05/15 00:23:34;;;;;;;7.80;4.53;;;;;;;10.91;86.09;93935.13;4984642;28;20015;-84
2023/05/15 00:26:00;;;;;;;7.65;4.80;;;;;;;10.81;86.39;93938.09;4984696;28;20321;-83
2023/05/15 00:28:28;;;;;;;6.38;4.00;;;;;;;10.74;86.86;93924.41;4984502;28;20025;-84
2023/05/15 00:30:54;;;;;;;6.65;4.40;;;;;;;10.74;87.25;93919.09;4984134;28;20018;-84
2023/05/15 00:33:19;;;;;;;9.07;4.93;;;;;;;10.67;87.21;93930.22;4984399;28;20019;-84
2023/05/15 00:35:48;;;;;;;8.30;4.68;;;;;;;10.71;87.39;93938.38;4984666;28;20050;-83
2023/05/15 00:38:14;;;;;;;9.60;4.32;;;;;;;10.73;87.30;93938.88;4984374;28;20019;-83
2023/05/15 00:40:41;;;;;;;6.65;3.88;;;;;;;10.73;87.15;93925.53;4984192;28;20026;-83
2023/05/15 00:43:08;;;;;;;5.82;3.88;;;;;;;10.71;87.13;93915.16;4984410;28;20015;-82
2023/05/15 00:45:35;;;;;;;7.80;4.30;;;;;;;10.75;87.00;93926.78;4984245;28;20058;-83
2023/05/15 00:48:00;;;;;;;11.93;4.47;;;;;;;10.77;87.11;93934.47;4984165;28;20018;-84
2023/05/15 00:50:26;;;;;;;7.05;3.83;;;;;;;10.77;86.53;93921.16;4984460;28;20416;-84
2023/05/15 00:52:53;;;;;;;6.60;3.90;;;;;;;10.73;86.44;93925.53;4984356;28;20046;-85
2023/05/15 00:55:18;;;;;;;6.78;3.55;;;;;;;10.61;86.18;93924.25;4967225;28;20034;-85
2023/05/15 00:57:46;;;;;;;4.68;3.25;;;;;;;10.60;86.19;93922.69;4984702;28;20060;-84
2023/05/15 01:00:15;;;;;;;14.30;4.00;;;;;;;10.55;86.08;93925.50;4984365;28;20022;-85
2023/05/15 01:02:41;;;;;;;6.15;3.83;;;;;;;10.53;86.63;93906.38;4967106;28;20034;-84
2023/05/15 01:05:07;;;;;;;6.40;3.92;;;;;;;10.58;86.50;93919.56;4984522;28;20014;-84
2023/05/15 01:07:39;;;;;;;7.38;4.55;;;;;;;10.59;86.57;93923.78;4984713;28;20031;-84
2023/05/15 01:10:06;;;;;;;7.47;5.20;;;;;;;10.54;86.79;93926.59;4967408;28;20014;-84
2023/05/15 01:12:34;;;;;;;7.90;4.57;;;;;;;10.48;87.09;93938.47;4984424;28;20053;-83
2023/05/15 01:15:00;;;;;;;7.55;4.57;;;;;;;10.42;87.38;93924.53;4984342;28;20034;-83
2023/05/15 01:17:26;;;;;;;6.97;5.45;;;;;;;10.43;87.46;93906.66;4984648;28;20089;-84
2023/05/15 01:19:55;;;;;;;9.48;5.68;;;;;;;10.39;87.92;93913.69;4984488;28;20022;-85
2023/05/15 01:23:10;;;;;;;8.98;5.60;;;;;;;10.36;88.54;93903.66;4984391;28;20122;-83
2023/05/15 01:26:14;;;;;;;10.23;5.75;;;;;;;10.30;88.96;93897.69;4941568;28;20043;-83
2023/05/15 01:28:47;;;;;;;11.00;6.75;;;;;;;10.31;89.16;93891.25;4961748;28;20039;-83
2023/05/15 01:31:22;;;;;;;12.20;7.97;;;;;;;10.38;89.44;93899.59;4984850;28;20232;-85
2023/05/15 01:33:53;;;;;;;14.15;8.18;;;;;;;10.40;89.35;93900.06;4988185;28;20183;-85
2023/05/15 01:36:45;;;;;;;11.52;7.72;;;;;;;10.44;89.60;93885.03;4987920;28;20019;-84
2023/05/15 01:39:14;;;;;;;8.82;6.68;;;;;;;10.49;89.29;93899.31;4987700;28;20042;-85
2023/05/15 01:42:12;;;;;;;12.77;8.50;;;;;;;10.48;89.08;93901.16;4970659;28;20026;-86
2023/05/15 01:44:51;;;;;;;16.13;8.07;;;;;;;10.48;88.99;93876.41;4969711;28;20090;-88
2023/05/15 01:47:25;;;;;;;13.23;9.40;;;;;;;10.49;88.78;93883.31;4992571;28;20026;-86
2023/05/15 01:49:58;;;;;;;14.55;8.40;;;;;;;10.48;88.66;93877.19;4992069;28;20057;-86
2023/05/15 01:52:35;;;;;;;17.30;9.00;;;;;;;10.47;88.37;93883.63;4992997;28;20302;-86
2023/05/15 01:55:03;;;;;;;12.55;8.55;;;;;;;10.49;88.79;93873.44;4988887;28;20031;-85
2023/05/15 01:57:30;;;;;;;20.25;8.60;;;;;;;10.47;88.45;93877.50;4970274;28;20077;-86
2023/05/15 01:59:57;;;;;;;16.92;9.10;;;;;;;10.53;88.52;93884.25;4987653;28;20368;-87
2023/05/15 02:02:25;;;;;;;47.47;10.40;;;;;;;10.53;88.37;93886.94;4987217;28;20022;-87
2023/05/15 02:04:55;;;;;;;22.45;9.60;;;;;;;10.42;88.50;93886.41;4969909;28;20030;-87
2023/05/15 02:07:23;;;;;;;61.17;11.25;;;;;;;10.33;88.67;93883.75;4988037;28;20050;-87
2023/05/15 02:09:51;;;;;;;53.08;10.80;;;;;;;10.26;88.91;93888.72;4987833;28;20053;-87
2023/05/15 02:12:18;;;;;;;34.53;9.20;;;;;;;10.10;89.66;93891.03;4987184;28;20105;-87
2023/05/15 02:14:58;;;;;;;24.42;10.15;;;;;;;10.06;89.97;93886.63;4987264;28;20046;-86
2023/05/15 02:17:28;;;;;;;31.08;10.57;;;;;;;10.04;90.44;93900.25;4987661;28;20103;-86
2023/05/15 02:19:54;;;;;;;62.35;10.70;;;;;;;10.02;90.43;93894.44;4988287;28;20031;-87
2023/05/15 02:22:19;;;;;;;28.92;9.48;;;;;;;10.02;90.70;93886.47;4988669;28;20033;-86
2023/05/15 02:24:45;;;;;;;23.08;9.00;;;;;;;10.00;90.58;93875.34;4987804;28;20029;-85
2023/05/15 02:27:23;;;;;;;27.42;8.75;;;;;;;9.90;90.38;93867.63;4987261;28;20384;-85
2023/05/15 02:30:07;;;;;;;28.73;8.15;;;;;;;9.82;91.12;93872.59;4987040;28;20097;-85
2023/05/15 02:32:43;;;;;;;37.45;9.77;;;;;;;9.78;91.80;93861.00;4980622;28;20027;-85
2023/05/15 02:35:32;;;;;;;46.03;11.13;;;;;;;9.79;92.18;93867.09;4987023;28;20026;-84
2023/05/15 02:38:01;;;;;;;19.55;9.80;;;;;;;9.78;92.12;93855.66;4986535;28;20078;-85
2023/05/15 02:40:27;;;;;;;23.15;8.95;;;;;;;9.77;92.33;93859.44;4986570;28;20029;-85
2023/05/15 02:42:54;;;;;;;13.80;9.02;;;;;;;9.80;92.56;93871.34;4986606;28;20089;-85
2023/05/15 02:45:22;;;;;;;13.35;8.45;;;;;;;9.87;92.68;93882.34;4986491;28;20023;-85
2023/05/15 02:47:50;;;;;;;19.58;10.43;;;;;;;9.89;92.11;93879.34;4985233;28;20716;-85
2023/05/15 02:50:16;;;;;;;15.48;8.80;;;;;;;9.91;91.90;93874.50;4986136;28;20031;-85
2023/05/15 02:52:41;;;;;;;16.40;9.30;;;;;;;9.92;91.94;93862.78;4968687;28;20058;-84
2023/05/15 02:55:07;;;;;;;16.00;9.80;;;;;;;9.97;91.91;93857.28;4985806;28;20023;-84
2023/05/15 02:57:33;;;;;;;13.15;8.60;;;;;;;10.03;91.28;93861.38;4986309;28;20018;-84
2023/05/15 02:59:59;;;;;;;12.70;7.55;;;;;;;10.02;91.13;93849.97;4986165;28;20186;-84
2023/05/15 03:02:24;;;;;;;16.85;8.25;;;;;;;10.03;90.70;93851.53;4985930;28;20224;-83
2023/05/15 03:04:50;;;;;;;10.70;6.53;;;;;;;10.02;90.29;93854.50;4985788;28;20041;-84
2023/05/15 03:07:16;;;;;;;6.93;4.60;;;;;;;9.97;89.50;93851.97;4985502;28;20019;-83
2023/05/15 03:09:41;;;;;;;5.65;4.05;;;;;;;9.90;88.94;93870.28;4985695;28;20071;-83
2023/05/15 03:12:07;;;;;;;8.85;5.55;;;;;;;9.88;89.25;93875.91;4985707;28;20347;-83
2023/05/15 03:14:33;;;;;;;6.50;4.20;;;;;;;9.91;89.64;93877.16;4985577;28;20273;-84
2023/05/15 03:16:59;;;;;;;6.05;3.67;;;;;;;9.97;89.25;93867.94;4985523;28;20019;-84
2023/05/15 03:19:25;;;;;;;8.50;4.32;;;;;;;9.96;89.23;93877.03;4985337;28;20110;-84
2023/05/15 03:21:50;;;;;;;9.40;4.57;;;;;;;10.00;89.40;93867.34;4968070;28;20321;-85
2023/05/15 03:24:16;;;;;;;7.88;4.43;;;;;;;10.06;89.35;93879.44;4985275;28;20015;-85
2023/05/15 03:26:42;;;;;;;6.80;4.00;;;;;;;10.11;89.26;93881.16;4967979;28;20019;-85
2023/05/15 03:29:08;;;;;;;9.88;4.65;;;;;;;10.16;89.09;93867.72;4985369;28;20014;-84
2023/05/15 03:31:33;;;;;;;11.45;4.50;;;;;;;10.21;89.37;93865.66;4985207;28;20317;-85
2023/05/15 03:33:59;;;;;;;7.35;4.57;;;;;;;10.28;89.19;93862.56;4985213;28;20225;-85
2023/05/15 03:36:24;;;;;;;7.70;3.90;;;;;;;10.33;89.38;93861.66;4985230;28;20317;-85
2023/05/15 03:38:50;;;;;;;6.07;3.70;;;;;;;10.38;88.85;93851.66;4985154;28;20025;-85
2023/05/15 03:41:15;;;;;;;9.15;4.32;;;;;;;10.43;88.41;93842.69;4985206;28;20093;-85
2023/05/15 03:43:41;;;;;;;16.15;5.63;;;;;;;10.47;88.42;93851.66;4985049;28;20014;-85
2023/05/15 03:46:06;;;;;;;7.63;4.45;;;;;;;10.45;88.07;93859.16;4967832;28;20321;-85
2023/05/15 03:48:32;;;;;;;8.50;5.43;;;;;;;10.46;88.09;93851.94;4985177;28;20049;-86
2023/05/15 03:50:57;;;;;;;10.80;5.00;;;;;;;10.50;87.68;93859.03;4985070;28;20360;-86
2023/05/15 03:53:23;;;;;;;7.80;4.82;;;;;;;10.55;87.65;93855.41;4984575;28;20066;-86
2023/05/15 03:55:48;;;;;;;7.28;4.90;;;;;;;10.60;87.48;93858.72;4984231;28;20022;-85
2023/05/15 03:58:14;;;;;;;8.13;4.82;;;;;;;10.64;87.77;93870.31;4984653;28;20019;-86
2023/05/15 04:00:39;;;;;;;7.30;4.60;;;;;;;10.69;87.50;93876.59;4985123;28;20019;-85
2023/05/15 04:03:05;;;;;;;9.55;4.93;;;;;;;10.75;87.50;93870.03;4985272;28;20021;-86
2023/05/15 04:05:31;;;;;;;10.48;4.70;;;;;;;10.75;87.31;93868.13;4984795;28;20019;-83
2023/05/15 04:07:56;;;;;;;7.97;5.15;;;;;;;10.80;87.28;93862.63;4984596;28;20041;-83
2023/05/15 04:10:21;;;;;;;12.00;5.82;;;;;;;10.81;87.07;93866.88;4984682;28;20019;-83
2023/05/15 04:12:47;;;;;;;11.68;7.13;;;;;;;10.81;86.87;93868.75;4984450;28;20019;-83
2023/05/15 04:15:24;;;;;;;10.25;6.30;;;;;;;10.84;87.10;93887.56;4984530;28;20372;-85
2023/05/15 04:17:55;;;;;;;13.45;8.00;;;;;;;10.79;87.05;93892.28;4985134;28;20022;-89
2023/05/15 04:20:23;;;;;;;16.83;8.75;;;;;;;10.76;87.35;93890.22;4984590;28;20026;-89
2023/05/15 04:22:49;;;;;;;13.43;8.55;;;;;;;10.74;87.29;93895.09;4985694;28;20029;-88
2023/05/15 04:25:15;;;;;;;13.88;8.60;;;;;;;10.76;87.53;93887.56;4986400;28;20027;-89
2023/05/15 04:27:44;;;;;;;14.23;8.65;;;;;;;10.79;87.64;93882.41;4985575;28;20027;-88
2023/05/15 04:30:15;;;;;;;15.23;9.25;;;;;;;10.87;87.77;93882.69;4985597;28;20065;-89
2023/05/15 04:32:41;;;;;;;14.57;9.63;;;;;;;10.91;87.86;93884.44;4985069;28;20038;-85
2023/05/15 04:35:09;;;;;;;15.23;9.43;;;;;;;10.95;87.66;93885.38;4984234;28;20026;-83
2023/05/15 04:37:35;;;;;;;15.63;8.90;;;;;;;10.97;87.41;93874.38;4985426;28;20054;-84
2023/05/15 04:40:01;;;;;;;16.40;8.88;;;;;;;11.04;87.13;93861.38;4984314;28;20034;-85
2023/05/15 04:42:28;;;;;;;14.65;9.30;;;;;;;11.09;87.22;93855.09;4984565;28;20090;-84
2023/05/15 04:44:53;;;;;;;21.77;10.80;;;;;;;11.15;87.50;93843.94;4984479;28;20026;-84
2023/05/15 04:47:19;;;;;;;15.32;10.00;;;;;;;11.21;87.53;93840.03;4984483;28;20098;-85
2023/05/15 04:49:46;;;;;;;11.80;8.13;;;;;;;11.27;87.48;93848.63;4984475;28;20026;-84
2023/05/15 04:52:12;;;;;;;12.23;7.00;;;;;;;11.33;87.29;93852.69;4984542;28;20027;-85
2023/05/15 04:54:38;;;;;;;11.63;6.18;;;;;;;11.40;87.16;93866.34;4984161;28;20046;-85
2023/05/15 04:57:03;;;;;;;12.15;6.57;;;;;;;11.47;86.73;93862.41;4984281;28;20090;-85
2023/05/15 04:59:29;;;;;;;20.42;8.63;;;;;;;11.52;86.45;93867.56;4984411;28;20022;-84
2023/05/15 05:01:55;;;;;;;13.52;8.32;;;;;;;11.57;85.96;93856.72;4967500;28;20023;-86
2023/05/15 05:04:20;;;;;;;14.00;8.35;;;;;;;11.59;85.77;93859.84;4984870;28;20023;-87
2023/05/15 05:06:46;;;;;;;13.88;8.38;;;;;;;11.61;85.52;93854.97;4970457;28;20054;-87
2023/05/15 05:09:12;;;;;;;11.57;8.02;;;;;;;11.59;85.17;93836.59;4988561;28;20376;-86
2023/05/15 05:11:43;;;;;;;15.27;8.63;;;;;;;11.61;85.41;93826.41;4988196;28;20026;-87
2023/05/15 05:14:13;;;;;;;14.85;7.45;;;;;;;11.66;85.66;93833.44;4988115;28;20034;-86
2023/05/15 05:16:39;;;;;;;12.10;7.40;;;;;;;11.66;85.42;93841.44;4988310;28;20038;-86
2023/05/15 05:19:05;;;;;;;13.32;7.03;;;;;;;11.74;84.93;93832.63;4988509;28;20023;-86
2023/05/15 05:21:31;;;;;;;11.75;7.80;;;;;;;11.79;84.96;93832.47;4988432;28;20320;-88
2023/05/15 05:23:57;;;;;;;12.98;7.57;;;;;;;11.88;85.18;93828.97;4987821;28;20252;-86
2023/05/15 05:26:22;;;;;;;14.05;7.50;;;;;;;11.92;85.06;93828.03;4987711;28;20030;-83
2023/05/15 05:28:48;;;;;;;13.15;8.35;;;;;;;12.03;84.74;93842.59;4987598;28;20221;-86
2023/05/15 05:31:14;;;;;;;13.68;8.20;;;;;;;12.11;84.20;93841.00;4988055;28;20033;-86
2023/05/15 05:33:39;;;;;;;9.63;6.72;;;;;;;12.21;83.97;93842.47;4988010;28;20069;-87
2023/05/15 05:36:05;;;;;;;9.38;6.43;;;;;;;12.30;83.58;93840.56;4970800;28;20066;-83
2023/05/15 05:38:31;;;;;;;13.30;8.48;;;;;;;12.40;82.91;93847.41;4987710;28;20019;-83
2023/05/15 05:40:57;;;;;;;13.40;8.50;;;;;;;12.40;82.89;93834.06;4987469;28;20335;-84
2023/05/15 05:43:25;;;;;;;17.10;9.38;;;;;;;12.47;82.60;93845.00;4987369;28;20015;-83
2023/05/15 05:45:50;;;;;;;19.35;9.30;;;;;;;12.57;82.82;93844.63;4987200;28;20026;-83
2023/05/15 05:48:16;;;;;;;15.48;8.60;;;;;;;12.68;82.59;93837.00;4987193;28;20141;-83
2023/05/15 05:50:41;;;;;;;14.35;8.10;;;;;;;12.79;81.83;93845.41;4987454;28;20049;-85
2023/05/15 05:53:07;;;;;;;13.20;8.95;;;;;;;12.86;81.59;93840.31;4987178;28;20042;-85
2023/05/15 05:55:32;;;;;;;12.80;9.27;;;;;;;12.99;81.16;93833.91;4987506;28;20030;-84
2023/05/15 05:57:58;;;;;;;14.50;8.80;;;;;;;13.09;80.52;93837.28;4987382;28;20029;-84
2023/05/15 06:00:24;;;;;;;13.35;8.63;;;;;;;13.14;80.42;93835.19;4987513;28;20063;-83
2023/05/15 06:02:56;;;;;;;20.33;9.30;;;;;;;13.23;80.36;93835.13;4986876;28;20019;-83
2023/05/15 06:05:22;;;;;;;11.00;7.97;;;;;;;13.33;79.33;93842.78;4986950;28;20022;-83
2023/05/15 06:07:48;;;;;;;16.77;8.20;;;;;;;13.38;78.21;93850.56;4986809;28;20046;-84
2023/05/15 06:10:13;;;;;;;13.23;8.38;;;;;;;13.42;78.41;93850.72;4986882;28;20023;-84
2023/05/15 06:12:39;;;;;;;11.88;8.05;;;;;;;13.48;78.06;93852.06;4986615;28;20030;-84
2023/05/15 06:15:05;;;;;;;15.32;8.15;;;;;;;13.51;77.31;93846.03;4987447;28;20026;-87
2023/05/15 06:17:31;;;;;;;13.90;8.57;;;;;;;13.50;77.46;93846.38;4986911;28;20029;-86
2023/05/15 06:19:56;;;;;;;19.08;8.35;;;;;;;13.53;77.70;93843.03;4987311;28;20023;-86
2023/05/15 06:22:24;;;;;;;11.65;7.78;;;;;;;13.64;78.72;93830.78;4986635;28;20074;-88
2023/05/15 06:24:50;;;;;;;12.63;7.78;;;;;;;13.68;77.96;93837.03;4986852;28;20027;-82
2023/05/15 06:27:15;;;;;;;8.55;6.20;;;;;;;13.75;78.12;93837.25;4986590;28;20375;-83
2023/05/15 06:29:41;;;;;;;11.57;6.50;;;;;;;13.79;78.13;93840.06;4986064;28;20030;-83
2023/05/15 06:32:06;;;;;;;8.70;5.97;;;;;;;13.92;77.80;93833.63;4986679;28;20038;-82
2023/05/15 06:34:32;;;;;;;7.82;5.00;;;;;;;14.00;76.63;93843.44;4986878;28;20058;-81
2023/05/15 06:36:57;;;;;;;11.15;5.97;;;;;;;14.08;76.54;93839.06;4985658;28;20046;-81
2023/05/15 06:39:23;;;;;;;10.35;4.43;;;;;;;14.26;76.20;93847.66;4984982;28;20023;-82
2023/05/15 06:41:48;;;;;;;8.13;5.25;;;;;;;14.44;75.87;93850.91;4967600;28;20018;-82
2023/05/15 06:44:14;;;;;;;8.20;5.47;;;;;;;14.61;74.77;93856.06;4984811;28;20041;-82
2023/05/15 06:46:39;;;;;;;9.70;3.95;;;;;;;14.78;73.41;93854.22;4984958;28;20023;-82
2023/05/15 06:49:05;;;;;;;5.40;4.05;;;;;;;14.81;73.48;93857.00;4985320;28;20073;-82
2023/05/15 06:51:30;;;;;;;7.32;4.70;;;;;;;14.91;73.07;93861.09;4985064;28;20018;-82
2023/05/15 06:53:56;;;;;;;8.25;4.63;;;;;;;15.08;72.93;93856.59;4985459;28;20092;-82
2023/05/15 06:56:21;;;;;;;9.90;5.88;;;;;;;15.11;72.54;93859.38;4985853;28;20030;-83
2023/05/15 06:58:47;;;;;;;7.97;5.05;;;;;;;15.28;72.82;93858.28;4985526;28;20046;-82
2023/05/15 07:01:12;;;;;;;7.50;4.15;;;;;;;15.52;74.39;93853.94;4985854;28;20105;-83
2023/05/15 07:03:38;;;;;;;9.35;4.82;;;;;;;15.62;71.02;93867.63;4985395;28;20023;-81
2023/05/15 07:06:04;;;;;;;8.88;6.28;;;;;;;15.72;70.47;93863.72;4968640;28;20110;-84
2023/05/15 07:08:29;;;;;;;10.85;5.88;;;;;;;15.83;69.20;93862.09;4985575;28;20220;-85
2023/05/15 07:10:55;;;;;;;9.85;6.13;;;;;;;15.90;68.64;93852.63;4985717;28;20379;-85
2023/05/15 07:13:21;;;;;;;10.77;6.53;;;;;;;16.03;68.91;93848.72;4985604;28;20030;-84
2023/05/15 07:15:46;;;;;;;13.05;6.70;;;;;;;16.11;68.26;93841.63;4985661;28;20022;-82
2023/05/15 07:18:12;;;;;;;12.00;6.68;;;;;;;16.12;66.77;93848.53;4985669;28;20026;-83
2023/05/15 07:20:38;;;;;;;14.18;6.38;;;;;;;16.02;66.71;93849.84;4985711;28;20085;-84
2023/05/15 07:23:03;;;;;;;13.57;7.25;;;;;;;15.94;66.97;93858.88;4985621;28;20018;-84
2023/05/15 07:25:29;;;;;;;15.57;8.00;;;;;;;15.76;67.11;93853.81;4968119;28;20034;-84
2023/05/15 07:27:55;;;;;;;12.90;6.95;;;;;;;15.65;67.71;93856.22;4985898;28;20218;-86
2023/05/15 07:30:21;;;;;;;18.98;7.93;;;;;;;15.64;68.09;93864.63;4984865;28;20033;-83
2023/05/15 07:32:47;;;;;;;12.23;7.57;;;;;;;15.56;68.62;93866.34;4967655;28;20229;-82
2023/05/15 07:35:12;;;;;;;20.30;8.23;;;;;;;15.58;68.98;93856.03;4985434;28;20027;-85
2023/05/15 07:37:38;;;;;;;13.30;8.05;;;;;;;15.60;69.42;93853.00;4985511;28;20035;-83
2023/05/15 07:40:04;;;;;;;21.95;9.38;;;;;;;15.58;68.88;93847.97;4985442;28;20022;-85
2023/05/15 07:42:29;;;;;;;17.40;8.68;;;;;;;15.58;68.88;93847.19;4984962;28;20026;-84
2023/05/15 07:44:55;;;;;;;17.30;9.35;;;;;;;15.57;69.06;93848.31;4985332;28;20035;-84
2023/05/15 07:47:20;;;;;;;17.15;8.20;;;;;;;15.61;69.23;93858.03;4984936;28;20026;-83
2023/05/15 07:49:46;;;;;;;19.85;8.88;;;;;;;15.65;69.25;93852.72;4985181;28;20038;-83
2023/05/15 07:52:11;;;;;;;18.98;9.35;;;;;;;15.67;69.22;93853.16;4984814;28;20034;-84
2023/05/15 07:54:38;;;;;;;21.23;8.73;;;;;;;15.62;69.41;93864.97;4984752;28;20095;-82
2023/05/15 07:57:04;;;;;;;16.20;9.80;;;;;;;15.63;69.03;93863.03;4985024;28;20029;-84
2023/05/15 07:59:29;;;;;;;21.08;9.65;;;;;;;15.62;68.94;93869.56;4985173;28;20026;-84
2023/05/15 08:01:55;;;;;;;21.70;9.57;;;;;;;15.56;69.19;93870.94;4984940;28;20073;-84
2023/05/15 08:04:20;;;;;;;21.13;8.65;;;;;;;15.53;68.80;93871.59;4967484;28;20082;-83
2023/05/15 08:06:46;;;;;;;15.00;8.43;;;;;;;15.59;69.16;93879.09;4967561;28;20073;-83
2023/05/15 08:09:11;;;;;;;16.20;8.68;;;;;;;15.64;69.08;93880.75;4984557;28;20018;-83
2023/05/15 08:11:37;;;;;;;18.90;8.73;;;;;;;15.68;69.10;93884.31;4984575;28;20041;-85
2023/05/15 08:14:02;;;;;;;16.80;9.00;;;;;;;15.76;68.89;93879.94;4985309;28;20102;-84
2023/05/15 08:16:28;;;;;;;16.65;8.88;;;;;;;15.84;68.19;93882.44;4984740;28;20173;-83
2023/05/15 08:18:57;;;;;;;22.02;9.27;;;;;;;15.91;68.13;93864.94;4984405;28;20022;-86
2023/05/15 08:21:23;;;;;;;21.08;9.32;;;;;;;15.96;68.40;93875.44;4984454;28;20220;-84
2023/05/15 08:23:48;;;;;;;13.55;8.48;;;;;;;16.01;68.05;93867.09;4984802;28;20066;-86
2023/05/15 08:26:14;;;;;;;18.08;8.40;;;;;;;16.07;67.60;93862.25;4984636;28;20316;-84
2023/05/15 08:28:39;;;;;;;17.77;8.63;;;;;;;16.08;67.22;93869.97;4984237;28;20053;-82
2023/05/15 08:31:05;;;;;;;16.88;9.30;;;;;;;16.06;67.58;93874.91;4984430;28;20320;-84
2023/05/15 08:33:30;;;;;;;28.45;10.68;;;;;;;16.05;67.34;93871.44;4984491;28;20061;-85
2023/05/15 08:35:56;;;;;;;18.52;11.80;;;;;;;16.02;67.73;93857.94;4967643;28;20129;-86
2023/05/15 08:38:22;;;;;;;19.98;11.98;;;;;;;16.04;67.56;93867.19;4984203;28;20253;-83
2023/05/15 08:40:50;;;;;;;29.55;13.80;;;;;;;16.08;67.66;93863.81;4983911;28;20035;-83
2023/05/15 08:43:17;;;;;;;22.30;11.70;;;;;;;16.10;66.41;93864.22;4984073;28;20094;-82
2023/05/15 08:45:44;;;;;;;20.70;11.88;;;;;;;16.09;65.57;93855.41;4984257;28;20034;-82
2023/05/15 08:48:14;;;;;;;19.52;11.90;;;;;;;16.12;65.67;93860.09;4984030;28;20034;-83
2023/05/15 08:50:40;;;;;;;26.38;13.25;;;;;;;16.14;66.32;93863.22;4984072;28;20123;-83
2023/05/15 08:53:07;;;;;;;25.48;13.88;;;;;;;16.15;66.66;93866.69;4983882;28;20043;-83
2023/05/15 08:55:32;;;;;;;25.05;12.93;;;;;;;16.14;66.19;93857.84;4984189;28;20030;-83
2023/05/15 08:57:59;;;;;;;38.45;13.40;;;;;;;16.03;66.08;93856.78;4966572;28;20332;-84
2023/05/15 09:00:25;;;;;;;22.08;13.55;;;;;;;16.03;66.62;93862.16;4983869;28;20094;-83
2023/05/15 09:02:52;;;;;;;22.50;12.57;;;;;;;15.97;66.63;93847.41;4983629;28;20039;-82
2023/05/15 09:05:18;;;;;;;23.85;12.45;;;;;;;15.94;67.38;93856.19;4966465;28;20038;-83
2023/05/15 09:07:45;;;;;;;24.92;11.85;;;;;;;15.83;67.55;93847.84;4983571;28;20027;-82
2023/05/15 09:10:12;;;;;;;25.92;11.95;;;;;;;15.81;67.99;93856.28;4983586;28;20029;-82
2023/05/15 09:12:43;;;;;;;22.20;12.20;;;;;;;15.79;68.10;93857.72;4983485;28;20344;-83
2023/05/15 09:15:12;;;;;;;20.65;10.90;;;;;;;15.80;67.89;93853.94;4983633;28;20339;-83
2023/05/15 09:17:39;;;;;;;20.77;11.25;;;;;;;15.82;67.94;93851.66;4983600;28;20038;-83
2023/05/15 09:20:05;;;;;;;32.45;11.48;;;;;;;15.77;68.55;93839.28;4983472;28;20225;-83
2023/05/15 09:22:36;;;;;;;24.85;11.55;;;;;;;15.75;68.54;93830.78;4983717;28;20034;-83
2023/05/15 09:25:05;;;;;;;20.50;10.95;;;;;;;15.78;69.34;93823.94;4983806;28;20106;-83
2023/05/15 09:27:41;;;;;;;20.33;11.18;;;;;;;15.88;69.32;93820.72;4983535;28;20023;-83
2023/05/15 09:30:08;;;;;;;25.42;10.80;;;;;;;15.95;68.89;93831.63;4966177;28;20101;-83
2023/05/15 09:32:36;;;;;;;17.83;11.20;;;;;;;15.98;68.62;93822.88;4983439;28;20042;-83
2023/05/15 09:35:01;;;;;;;28.70;11.23;;;;;;;16.05;68.28;93816.91;4983658;28;20035;-83
2023/05/15 09:37:31;;;;;;;19.45;11.75;;;;;;;16.13;68.51;93807.09;4983479;28;20077;-83
2023/05/15 09:40:10;;;;;;;18.30;10.60;;;;;;;16.22;67.90;93811.16;4983303;28;20019;-83
2023/05/15 09:42:35;;;;;;;20.70;11.07;;;;;;;16.35;67.68;93798.38;4983362;28;20025;-83
2023/05/15 09:45:01;;;;;;;37.17;12.05;;;;;;;16.43;67.50;93788.56;4983423;28;20023;-83
2023/05/15 09:47:27;;;;;;;20.75;9.88;;;;;;;16.59;66.10;93786.59;4983179;28;20091;-83
2023/05/15 09:49:52;;;;;;;18.27;10.75;;;;;;;16.64;65.93;93780.94;4983482;28;20029;-83
2023/05/15 09:52:18;;;;;;;20.50;11.55;;;;;;;16.70;64.98;93770.66;4966882;28;20030;-83
2023/05/15 09:54:45;;;;;;;24.50;12.27;;;;;;;16.72;65.20;93789.94;4986664;28;20114;-82
2023/05/15 09:57:12;;;;;;;20.50;10.38;;;;;;;16.75;64.99;93774.97;4986856;28;20037;-82
2023/05/15 09:59:46;;;;;;;24.38;10.73;;;;;;;16.86;64.56;93784.09;4986679;28;20213;-83
2023/05/15 10:02:33;;;;;;;21.75;11.52;;;;;;;16.94;64.12;93791.19;4986800;28;20022;-82
2023/05/15 10:04:59;;;;;;;24.20;11.43;;;;;;;17.04;63.87;93785.22;4986831;28;20037;-82
2023/05/15 10:07:32;;;;;;;20.63;10.95;;;;;;;17.16;64.14;93780.81;4986528;28;20035;-82
2023/05/15 10:09:59;;;;;;;18.60;11.18;;;;;;;17.18;63.84;93784.72;4986516;28;20054;-82
2023/05/15 10:12:26;;;;;;;22.52;10.15;;;;;;;17.19;63.31;93790.88;4986767;28;20033;-81
2023/05/15 10:14:54;;;;;;;27.25;10.32;;;;;;;17.20;62.82;93781.69;4986536;28;20037;-82
2023/05/15 10:17:20;;;;;;;17.40;11.27;;;;;;;17.32;63.13;93788.78;4985399;28;20035;-82
2023/05/15 10:19:50;;;;;;;24.83;10.80;;;;;;;17.39;63.13;93784.31;4986673;28;20038;-82
2023/05/15 10:22:20;;;;;;;16.27;10.63;;;;;;;17.38;63.09;93792.75;4986201;28;20033;-81
2023/05/15 10:24:50;;;;;;;26.10;11.75;;;;;;;17.42;63.19;93794.41;4986308;28;20030;-84
2023/05/15 10:27:17;;;;;;;31.52;12.35;;;;;;;17.40;62.41;93804.75;4986567;28;20216;-83
2023/05/15 10:29:45;;;;;;;22.83;11.50;;;;;;;17.37;62.44;93810.06;4986353;28;20022;-82
2023/05/15 10:32:12;;;;;;;25.98;12.20;;;;;;;17.42;63.10;93818.66;4986243;28;20023;-82
2023/05/15 10:34:38;;;;;;;23.30;11.20;;;;;;;17.36;62.50;93814.69;4986380;28;20093;-83
2023/05/15 10:37:04;;;;;;;22.60;9.52;;;;;;;17.29;61.92;93833.38;4986414;28;20023;-82
2023/05/15 10:39:30;;;;;;;14.77;10.43;;;;;;;17.17;61.42;93826.22;4985849;28;20026;-82
2023/05/15 10:41:57;;;;;;;19.73;11.05;;;;;;;17.04;62.22;93817.53;4986312;28;20030;-83
2023/05/15 10:44:22;;;;;;;19.25;10.43;;;;;;;16.99;63.65;93817.03;4985858;28;20026;-83
2023/05/15 10:46:48;;;;;;;18.13;10.98;;;;;;;16.79;63.38;93824.28;4985915;28;20018;-83
2023/05/15 10:49:13;;;;;;;18.75;10.77;;;;;;;16.71;65.42;93819.88;4968817;28;20046;-82
2023/05/15 10:51:41;;;;;;;24.05;11.13;;;;;;;16.75;65.19;93826.91;4985972;28;20022;-82
2023/05/15 10:54:08;;;;;;;18.75;10.18;;;;;;;16.69;63.40;93838.28;4985530;28;20050;-80
2023/05/15 10:56:36;;;;;;;19.05;10.75;;;;;;;16.60;63.63;93830.41;4986128;28;20030;-82
2023/05/15 10:59:07;;;;;;;17.50;10.75;;;;;;;16.54;64.70;93821.84;4985758;28;20033;-82
2023/05/15 11:01:40;;;;;;;21.98;10.10;;;;;;;16.51;64.00;93819.09;4985741;28;20032;-82
2023/05/15 11:04:10;;;;;;;20.45;10.85;;;;;;;16.50;65.06;93807.53;4985816;28;20094;-83
2023/05/15 11:06:38;;;;;;;23.33;9.43;;;;;;;16.56;65.72;93814.19;4968142;28;20042;-83
2023/05/15 11:09:23;;;;;;;25.38;10.45;;;;;;;16.60;64.75;93815.06;4985340;28;20388;-82
2023/05/15 11:11:51;;;;;;;16.38;10.15;;;;;;;16.64;65.23;93810.53;4985510;28;20026;-82
2023/05/15 11:14:20;;;;;;;29.50;9.68;;;;;;;16.74;64.62;93801.13;4985164;28;20034;-82
2023/05/15 11:16:52;;;;;;;15.10;9.23;;;;;;;16.86;64.70;93804.84;4968156;28;20023;-81
2023/05/15 11:19:23;;;;;;;16.08;9.55;;;;;;;16.97;65.23;93800.44;4985172;28;20029;-81
2023/05/15 11:22:07;;;;;;;12.05;8.38;;;;;;;17.09;64.30;93815.69;4967831;28;20333;-81
2023/05/15 11:24:46;;;;;;;21.80;9.73;;;;;;;17.11;63.74;93811.50;4985111;28;20050;-82
2023/05/15 11:27:15;;;;;;;18.15;10.60;;;;;;;17.18;64.26;93797.41;4984999;28;20018;-81
2023/05/15 11:30:04;;;;;;;20.27;9.90;;;;;;;17.39;64.63;93805.88;4984996;28;20093;-82